Time;durP1;ratioP1;P1;durP2;ratioP2;P2;SDS_P1;SDS_P2;PMS_P1;PMS_P2;Temp;Humidity;BMP_temperature;BMP_pressure;BME280_temperature;BME280_humidity;BME280_pressure;Samples;Min_cycle;Max_cycle;Signal;HPM_P1;HPM_P2
2023/06/23 00:01:17;;;;;;;15.88;9.57;;;18.60;99.90;;;;;;5058148;28;20048;-75
2023/06/23 00:03:45;;;;;;;16.15;10.18;;;18.50;99.90;;;;;;5058411;28;20454;-76
2023/06/23 00:06:11;;;;;;;16.75;10.40;;;18.50;99.90;;;;;;5058473;28;20044;-75
2023/06/23 00:08:40;;;;;;;16.38;10.48;;;18.60;99.90;;;;;;5058436;28;20449;-75
2023/06/23 00:11:10;;;;;;;15.55;10.32;;;18.50;99.90;;;;;;5058199;28;20418;-75
2023/06/23 00:13:37;;;;;;;15.18;10.65;;;18.50;99.90;;;;;;5058142;28;20052;-76
2023/06/23 00:16:06;;;;;;;14.45;10.07;;;18.50;99.90;;;;;;5057860;28;20093;-76
2023/06/23 00:18:36;;;;;;;19.08;11.13;;;18.50;99.90;;;;;;5057180;28;20407;-75
2023/06/23 00:21:04;;;;;;;17.70;10.43;;;18.40;99.90;;;;;;5057901;28;20166;-76
2023/06/23 00:23:30;;;;;;;12.32;8.75;;;18.40;99.90;;;;;;5075913;28;20052;-75
2023/06/23 00:25:57;;;;;;;14.25;10.63;;;18.50;99.90;;;;;;5057915;28;20077;-76
2023/06/23 00:28:24;;;;;;;14.82;11.02;;;18.50;99.90;;;;;;5057763;28;20502;-76
2023/06/23 00:30:50;;;;;;;13.95;10.10;;;18.50;99.90;;;;;;5057726;28;20510;-75
2023/06/23 00:33:16;;;;;;;16.00;10.38;;;18.40;99.90;;;;;;5075921;28;20132;-76
2023/06/23 00:35:41;;;;;;;13.65;10.25;;;18.40;99.90;;;;;;5057460;28;20417;-75
2023/06/23 00:38:08;;;;;;;13.93;9.63;;;18.40;99.90;;;;;;5057725;28;20048;-75
2023/06/23 00:40:34;;;;;;;16.50;11.05;;;18.50;99.90;;;;;;5075554;28;20064;-76
2023/06/23 00:43:00;;;;;;;14.43;8.77;;;18.40;99.90;;;;;;5057655;28;20076;-76
2023/06/23 00:45:25;;;;;;;16.35;8.43;;;18.40;99.90;;;;;;5057362;28;20515;-76
2023/06/23 00:47:52;;;;;;;13.38;8.77;;;18.40;99.90;;;;;;5057749;28;20047;-75
2023/06/23 00:50:20;;;;;;;11.65;8.00;;;18.40;99.90;;;;;;5075370;28;20041;-75
2023/06/23 00:52:51;;;;;;;13.65;8.20;;;18.40;99.90;;;;;;5057696;28;20126;-76
2023/06/23 00:55:20;;;;;;;14.55;8.43;;;18.40;99.90;;;;;;5057401;28;20044;-76
2023/06/23 00:57:47;;;;;;;14.27;8.45;;;18.30;99.90;;;;;;5075551;28;20480;-76
2023/06/23 01:00:17;;;;;;;13.02;8.38;;;18.40;99.90;;;;;;5057453;28;20059;-76
2023/06/23 01:02:45;;;;;;;12.85;8.23;;;18.40;99.90;;;;;;5057428;28;20060;-75
2023/06/23 01:05:11;;;;;;;12.73;7.95;;;18.40;99.90;;;;;;5075097;28;20041;-75
2023/06/23 01:07:45;;;;;;;12.75;7.90;;;18.40;99.90;;;;;;5074922;28;20094;-75
2023/06/23 01:10:30;;;;;;;12.35;7.90;;;18.30;99.90;;;;;;5075001;28;20071;-75
2023/06/23 01:13:15;;;;;;;13.77;7.28;;;18.30;99.90;;;;;;5057250;28;20040;-75
2023/06/23 01:15:53;;;;;;;10.82;7.30;;;18.30;99.90;;;;;;5057227;28;20060;-75
2023/06/23 01:18:38;;;;;;;9.75;7.13;;;18.40;99.90;;;;;;5074658;28;20399;-75
2023/06/23 01:21:08;;;;;;;14.88;7.00;;;18.30;99.90;;;;;;5074830;28;20040;-75
2023/06/23 01:24:03;;;;;;;9.98;6.68;;;18.30;99.90;;;;;;5074850;28;20094;-75
2023/06/23 01:27:02;;;;;;;12.38;6.40;;;18.30;99.90;;;;;;5056781;28;20052;-75
2023/06/23 01:29:31;;;;;;;10.55;6.82;;;18.30;99.90;;;;;;5056189;28;20044;-75
2023/06/23 01:32:10;;;;;;;10.85;5.47;;;18.20;99.90;;;;;;5074513;28;20480;-75
2023/06/23 01:34:42;;;;;;;11.00;5.85;;;18.30;99.90;;;;;;5074150;28;20052;-75
2023/06/23 01:37:18;;;;;;;13.00;5.97;;;18.20;99.90;;;;;;5056376;28;20412;-76
2023/06/23 01:39:57;;;;;;;9.50;5.50;;;18.30;99.90;;;;;;5056768;28;20048;-75
2023/06/23 01:42:28;;;;;;;8.85;5.38;;;18.20;99.90;;;;;;5056418;28;20056;-76
2023/06/23 01:44:56;;;;;;;12.60;6.20;;;18.20;99.90;;;;;;5056396;28;20059;-75
2023/06/23 01:47:32;;;;;;;8.73;5.30;;;18.20;99.90;;;;;;5056169;28;20116;-75
2023/06/23 01:50:00;;;;;;;9.07;5.15;;;18.20;99.90;;;;;;5074194;28;20043;-75
2023/06/23 01:52:29;;;;;;;11.30;5.32;;;18.10;99.90;;;;;;5074187;28;20093;-75
2023/06/23 01:54:57;;;;;;;7.85;5.47;;;18.20;99.90;;;;;;5056211;28;20044;-76
2023/06/23 01:57:24;;;;;;;10.23;5.35;;;18.20;99.90;;;;;;5074084;28;20106;-76
2023/06/23 01:59:52;;;;;;;10.50;5.18;;;18.10;99.90;;;;;;5074067;28;20041;-75
2023/06/23 02:02:19;;;;;;;10.20;5.70;;;18.10;99.90;;;;;;5056284;28;20053;-76
2023/06/23 02:04:48;;;;;;;9.48;5.18;;;18.10;99.90;;;;;;5055920;28;20052;-76
2023/06/23 02:07:17;;;;;;;8.82;5.47;;;18.10;99.90;;;;;;5074001;28;20047;-76
2023/06/23 02:09:45;;;;;;;10.70;6.32;;;18.10;99.90;;;;;;5056023;28;20041;-76
2023/06/23 02:12:12;;;;;;;10.60;5.75;;;18.10;99.90;;;;;;5056185;28;20523;-76
2023/06/23 02:14:40;;;;;;;12.20;6.25;;;18.00;99.90;;;;;;5056719;28;20053;-76
2023/06/23 02:17:10;;;;;;;10.93;6.10;;;18.00;99.90;;;;;;5056322;28;20060;-76
2023/06/23 02:19:42;;;;;;;12.95;7.32;;;18.00;99.90;;;;;;5073895;28;20076;-75
2023/06/23 02:22:15;;;;;;;15.35;7.72;;;18.00;99.90;;;;;;5055945;28;20052;-76
2023/06/23 02:24:42;;;;;;;15.15;6.82;;;18.00;99.90;;;;;;5055780;28;20052;-76
2023/06/23 02:27:08;;;;;;;12.13;7.20;;;18.00;99.90;;;;;;5073776;28;20044;-75
2023/06/23 02:29:35;;;;;;;12.05;6.05;;;18.00;99.90;;;;;;5055643;28;20052;-75
2023/06/23 02:32:02;;;;;;;12.90;7.03;;;18.00;99.90;;;;;;5055885;28;20505;-75
2023/06/23 02:34:29;;;;;;;10.70;5.53;;;17.90;99.90;;;;;;5055418;28;20131;-75
2023/06/23 02:37:01;;;;;;;8.95;5.65;;;17.90;99.90;;;;;;5073545;28;20080;-74
2023/06/23 02:39:33;;;;;;;12.43;5.88;;;17.90;99.90;;;;;;5055641;28;20048;-75
2023/06/23 02:42:00;;;;;;;10.45;5.68;;;17.90;99.90;;;;;;5055249;28;20055;-74
2023/06/23 02:44:53;;;;;;;9.63;5.68;;;17.90;99.90;;;;;;5073615;28;20045;-75
2023/06/23 02:47:20;;;;;;;9.50;5.38;;;17.90;99.90;;;;;;5055728;28;20050;-74
2023/06/23 02:49:48;;;;;;;8.70;5.93;;;17.90;99.90;;;;;;5055576;28;20500;-74
2023/06/23 02:52:17;;;;;;;7.72;5.38;;;17.90;99.90;;;;;;5073518;28;20037;-74
2023/06/23 02:54:49;;;;;;;10.02;6.05;;;17.90;99.90;;;;;;5073493;28;20052;-75
2023/06/23 02:57:17;;;;;;;8.07;5.03;;;17.90;99.90;;;;;;5073327;28;20051;-74
2023/06/23 02:59:44;;;;;;;9.98;6.00;;;17.90;99.90;;;;;;5055425;28;20040;-74
2023/06/23 03:02:13;;;;;;;9.60;5.88;;;17.80;99.90;;;;;;5055412;28;20091;-74
2023/06/23 03:04:41;;;;;;;9.85;5.93;;;17.80;99.90;;;;;;5054912;28;20044;-74
2023/06/23 03:07:07;;;;;;;9.93;5.93;;;17.80;99.90;;;;;;5072667;28;20508;-74
2023/06/23 03:09:34;;;;;;;10.68;6.15;;;17.80;99.90;;;;;;5060122;28;20120;-74
2023/06/23 03:12:00;;;;;;;10.15;6.53;;;17.80;99.90;;;;;;5052346;28;20091;-74
2023/06/23 03:14:26;;;;;;;8.98;5.55;;;17.80;99.90;;;;;;5051033;28;20453;-74
2023/06/23 03:16:55;;;;;;;8.63;5.90;;;17.80;99.90;;;;;;5052121;28;20099;-74
2023/06/23 03:19:36;;;;;;;8.50;5.75;;;17.80;99.90;;;;;;5035201;28;20049;-74
2023/06/23 03:22:04;;;;;;;10.75;6.28;;;17.70;99.90;;;;;;5035112;28;20076;-74
2023/06/23 03:24:34;;;;;;;7.25;4.93;;;17.70;99.90;;;;;;5053137;28;20045;-74
2023/06/23 03:27:05;;;;;;;9.88;5.10;;;17.80;99.90;;;;;;5035170;28;20120;-74
2023/06/23 03:29:36;;;;;;;8.63;4.97;;;17.80;99.90;;;;;;5035299;28;20120;-74
2023/06/23 03:32:04;;;;;;;7.88;5.47;;;17.70;99.90;;;;;;5035006;28;20107;-74
2023/06/23 03:34:39;;;;;;;8.88;5.35;;;17.80;99.90;;;;;;5052615;28;20052;-74
2023/06/23 03:37:08;;;;;;;12.60;5.50;;;17.70;99.90;;;;;;5034848;28;20489;-74
2023/06/23 03:39:38;;;;;;;8.00;5.28;;;17.60;99.90;;;;;;5034742;28;20037;-74
2023/06/23 03:42:04;;;;;;;8.52;5.45;;;17.70;99.90;;;;;;5034825;28;20044;-75
2023/06/23 03:44:45;;;;;;;8.48;5.70;;;17.70;99.90;;;;;;5034839;28;20091;-75
2023/06/23 03:47:18;;;;;;;9.63;5.43;;;17.60;99.90;;;;;;5035044;28;20531;-75
2023/06/23 03:50:02;;;;;;;10.18;5.70;;;17.60;99.90;;;;;;5035136;28;20450;-75
2023/06/23 03:52:29;;;;;;;10.18;5.63;;;17.60;99.90;;;;;;5034854;28;20044;-75
2023/06/23 03:54:56;;;;;;;8.10;5.55;;;17.60;99.90;;;;;;5054894;28;20045;-74
2023/06/23 03:57:27;;;;;;;9.30;5.75;;;17.60;99.90;;;;;;5056285;28;20041;-75
2023/06/23 03:59:55;;;;;;;7.88;4.97;;;17.60;99.90;;;;;;5056254;28;20037;-75
2023/06/23 04:02:22;;;;;;;12.30;5.93;;;17.60;99.90;;;;;;5056065;28;20044;-75
2023/06/23 04:04:52;;;;;;;9.93;5.50;;;17.60;99.90;;;;;;5038034;28;20401;-74
2023/06/23 04:07:19;;;;;;;9.40;5.30;;;17.60;99.90;;;;;;5056228;28;20048;-75
2023/06/23 04:09:48;;;;;;;9.07;5.60;;;17.60;99.90;;;;;;5038326;28;20045;-75
2023/06/23 04:12:17;;;;;;;8.48;5.22;;;17.70;99.90;;;;;;5038007;28;20048;-75
2023/06/23 04:14:46;;;;;;;9.35;5.78;;;17.60;99.90;;;;;;5038140;28;20116;-75
2023/06/23 04:17:12;;;;;;;8.70;5.38;;;17.60;99.90;;;;;;5037824;28;20072;-75
2023/06/23 04:19:42;;;;;;;9.00;5.07;;;17.60;99.90;;;;;;5038135;28;20044;-75
2023/06/23 04:22:08;;;;;;;9.90;5.70;;;17.60;99.90;;;;;;5037805;28;20134;-75
2023/06/23 04:24:38;;;;;;;8.15;5.53;;;17.60;99.90;;;;;;5055583;28;20055;-75
2023/06/23 04:27:05;;;;;;;8.77;5.20;;;17.60;99.90;;;;;;5037865;28;20457;-75
2023/06/23 04:29:32;;;;;;;9.95;5.80;;;17.70;99.90;;;;;;5037704;28;20057;-75
2023/06/23 04:31:59;;;;;;;11.70;5.50;;;17.70;99.90;;;;;;5055722;28;20095;-75
2023/06/23 04:34:25;;;;;;;8.88;6.05;;;17.70;99.90;;;;;;5037403;28;20095;-74
2023/06/23 04:37:01;;;;;;;9.48;6.50;;;17.80;99.90;;;;;;5055354;28;20068;-74
2023/06/23 04:39:31;;;;;;;10.68;5.40;;;17.80;99.90;;;;;;5055610;28;20045;-75
2023/06/23 04:42:03;;;;;;;8.85;5.18;;;17.80;99.90;;;;;;5037562;28;20412;-74
2023/06/23 04:44:32;;;;;;;9.45;5.70;;;17.90;99.90;;;;;;5037642;28;20061;-75
2023/06/23 04:47:01;;;;;;;7.75;5.85;;;17.90;99.90;;;;;;5055170;28;20051;-74
2023/06/23 04:49:29;;;;;;;12.20;5.60;;;17.80;99.90;;;;;;5037541;28;20052;-74
2023/06/23 04:51:58;;;;;;;9.52;5.60;;;17.80;99.90;;;;;;5037247;28;20049;-75
2023/06/23 04:54:29;;;;;;;8.00;5.50;;;17.80;99.90;;;;;;5055568;28;20366;-75
2023/06/23 04:57:01;;;;;;;10.48;5.90;;;17.90;99.90;;;;;;5037016;28;20080;-75
2023/06/23 04:59:33;;;;;;;11.52;5.45;;;17.90;99.90;;;;;;5037188;28;20048;-75
2023/06/23 05:02:01;;;;;;;9.98;5.88;;;17.90;99.90;;;;;;5054955;28;20041;-75
2023/06/23 05:04:28;;;;;;;8.45;5.53;;;18.00;99.90;;;;;;5054452;28;20037;-75
2023/06/23 05:06:55;;;;;;;12.15;5.53;;;18.00;99.90;;;;;;5037146;28;20381;-74
2023/06/23 05:09:22;;;;;;;8.45;5.05;;;18.00;99.90;;;;;;5054720;28;20142;-74
2023/06/23 05:11:49;;;;;;;12.82;5.88;;;18.00;99.90;;;;;;5054672;28;20045;-75
2023/06/23 05:14:18;;;;;;;8.65;5.55;;;18.00;99.90;;;;;;5036724;28;20057;-75
2023/06/23 05:16:44;;;;;;;9.40;5.93;;;18.00;99.90;;;;;;5036687;28;20057;-75
2023/06/23 05:19:11;;;;;;;9.40;5.80;;;18.00;99.90;;;;;;5054563;28;20526;-75
2023/06/23 05:21:40;;;;;;;10.18;5.88;;;18.00;99.90;;;;;;5054565;28;20052;-75
2023/06/23 05:24:09;;;;;;;14.18;6.07;;;18.00;99.90;;;;;;5054640;28;20032;-75
2023/06/23 05:26:36;;;;;;;7.68;5.75;;;18.00;99.90;;;;;;5036701;28;20130;-75
2023/06/23 05:29:07;;;;;;;9.10;5.72;;;18.10;99.90;;;;;;5036510;28;20064;-75
2023/06/23 05:31:37;;;;;;;9.35;5.90;;;18.10;99.90;;;;;;5036699;28;20126;-74
2023/06/23 05:34:05;;;;;;;8.88;5.82;;;18.20;99.90;;;;;;5036468;28;20059;-74
2023/06/23 05:36:33;;;;;;;8.73;5.47;;;18.20;99.90;;;;;;5036279;28;20400;-76
2023/06/23 05:38:59;;;;;;;9.48;5.18;;;18.30;99.90;;;;;;5054367;28;20131;-75
2023/06/23 05:41:25;;;;;;;10.50;5.95;;;18.40;99.90;;;;;;5036527;28;20120;-75
2023/06/23 05:43:52;;;;;;;11.18;5.60;;;18.50;99.90;;;;;;5054072;28;20467;-75
2023/06/23 05:46:23;;;;;;;10.10;5.60;;;18.50;99.90;;;;;;5036204;28;20055;-75
2023/06/23 05:48:51;;;;;;;9.20;5.10;;;18.60;99.90;;;;;;5036255;28;20045;-75
2023/06/23 05:51:22;;;;;;;14.43;5.63;;;18.60;99.90;;;;;;5036291;28;20128;-75
2023/06/23 05:53:54;;;;;;;10.20;5.93;;;18.60;99.90;;;;;;5036064;28;20395;-75
2023/06/23 05:56:30;;;;;;;12.18;5.68;;;18.70;99.90;;;;;;5036303;28;20516;-76
2023/06/23 05:58:58;;;;;;;9.93;5.65;;;18.80;99.90;;;;;;5036122;28;20403;-75
2023/06/23 06:01:29;;;;;;;7.65;4.97;;;18.80;99.90;;;;;;5036032;28;20053;-75
2023/06/23 06:04:04;;;;;;;8.45;5.22;;;18.80;99.90;;;;;;5036028;28;20056;-75
2023/06/23 06:06:33;;;;;;;9.90;6.13;;;18.90;99.90;;;;;;5036104;28;20047;-76
2023/06/23 06:09:00;;;;;;;9.43;5.63;;;18.90;99.90;;;;;;5035801;28;20091;-75
2023/06/23 06:11:28;;;;;;;8.30;5.70;;;19.10;99.90;;;;;;5036026;28;20045;-75
2023/06/23 06:13:55;;;;;;;7.57;5.75;;;19.10;99.90;;;;;;5053517;28;20463;-75
2023/06/23 06:16:22;;;;;;;7.20;5.30;;;19.30;99.90;;;;;;5036632;28;20056;-73
2023/06/23 06:18:51;;;;;;;7.75;5.45;;;19.50;99.90;;;;;;5062489;28;20053;-73
2023/06/23 06:21:19;;;;;;;8.88;5.22;;;19.80;99.90;;;;;;5035527;28;20091;-74
2023/06/23 06:23:46;;;;;;;8.07;5.68;;;19.90;99.90;;;;;;5035457;28;20063;-74
2023/06/23 06:26:14;;;;;;;9.00;6.53;;;20.10;99.90;;;;;;5053279;28;20079;-73
2023/06/23 06:28:42;;;;;;;9.05;5.75;;;20.20;99.90;;;;;;5053196;28;20124;-74
2023/06/23 06:31:10;;;;;;;11.30;5.65;;;20.30;99.90;;;;;;5035594;28;20124;-73
2023/06/23 06:33:41;;;;;;;8.80;5.45;;;20.50;99.90;;;;;;5035292;28;20127;-75
2023/06/23 06:36:11;;;;;;;8.80;5.78;;;20.70;99.90;;;;;;5053257;28;20393;-74
2023/06/23 06:38:38;;;;;;;9.27;5.70;;;20.90;99.90;;;;;;5035273;28;20048;-74
2023/06/23 06:41:06;;;;;;;9.98;5.80;;;20.90;99.90;;;;;;5035238;28;20494;-74
2023/06/23 06:43:32;;;;;;;8.65;6.22;;;21.00;99.90;;;;;;5035551;28;20053;-75
2023/06/23 06:46:00;;;;;;;9.50;6.50;;;21.00;99.90;;;;;;5053234;28;20369;-74
2023/06/23 06:48:27;;;;;;;8.30;5.85;;;21.20;99.90;;;;;;5053104;28;20048;-74
2023/06/23 06:50:54;;;;;;;9.73;6.63;;;21.30;99.90;;;;;;5035465;28;20495;-74
2023/06/23 06:53:21;;;;;;;11.52;5.80;;;21.40;99.90;;;;;;5035351;28;20110;-75
2023/06/23 06:55:47;;;;;;;9.23;5.85;;;21.50;99.90;;;;;;5035154;28;20061;-74
2023/06/23 06:58:14;;;;;;;10.65;5.88;;;21.60;99.90;;;;;;5035341;28;20052;-74
2023/06/23 07:00:40;;;;;;;9.68;5.68;;;21.50;99.90;;;;;;5035279;28;20138;-73
2023/06/23 07:03:06;;;;;;;14.32;6.93;;;21.60;99.90;;;;;;5035331;28;20134;-74
2023/06/23 07:05:33;;;;;;;11.18;6.47;;;21.70;99.90;;;;;;5035016;28;20045;-74
2023/06/23 07:07:59;;;;;;;11.32;7.13;;;21.80;99.90;;;;;;5051826;28;20068;-74
2023/06/23 07:10:24;;;;;;;13.93;6.97;;;21.80;99.90;;;;;;5053066;28;20044;-74
2023/06/23 07:12:50;;;;;;;10.90;7.53;;;21.70;99.90;;;;;;5035044;28;20056;-76
2023/06/23 07:15:16;;;;;;;12.63;8.45;;;21.60;99.90;;;;;;5052896;28;20044;-76
2023/06/23 07:17:41;;;;;;;11.48;7.40;;;21.50;99.90;;;;;;5052733;28;20091;-77
2023/06/23 07:20:07;;;;;;;10.00;7.70;;;21.60;99.90;;;;;;5052967;28;20072;-77
2023/06/23 07:22:33;;;;;;;12.90;7.93;;;21.50;99.90;;;;;;5052637;28;20396;-77
2023/06/23 07:24:59;;;;;;;9.98;7.65;;;21.70;99.90;;;;;;5052646;28;20063;-76
2023/06/23 07:27:25;;;;;;;10.25;6.88;;;21.70;99.90;;;;;;5053006;28;20488;-75
2023/06/23 07:29:50;;;;;;;10.07;6.57;;;21.70;99.90;;;;;;5038643;28;20083;-76
2023/06/23 07:32:16;;;;;;;12.93;7.35;;;21.70;99.90;;;;;;5038628;28;20064;-75
2023/06/23 07:34:42;;;;;;;10.55;6.72;;;21.80;99.90;;;;;;5038417;28;20052;-76
2023/06/23 07:37:11;;;;;;;13.98;6.50;;;22.00;99.90;;;;;;5056189;28;20503;-75
2023/06/23 07:39:37;;;;;;;12.52;6.25;;;22.20;99.90;;;;;;5056283;28;20053;-77
2023/06/23 07:42:04;;;;;;;11.70;6.60;;;22.30;99.90;;;;;;5038353;28;20037;-76
2023/06/23 07:44:31;;;;;;;10.40;6.03;;;22.30;99.90;;;;;;5038487;28;20049;-77
2023/06/23 07:46:58;;;;;;;9.32;5.80;;;22.30;99.90;;;;;;5049124;28;20045;-75
2023/06/23 07:49:23;;;;;;;8.93;6.13;;;22.40;99.90;;;;;;5056263;28;20116;-76
2023/06/23 07:51:49;;;;;;;9.00;5.75;;;22.40;99.90;;;;;;5038207;28;20458;-75
2023/06/23 07:54:15;;;;;;;8.68;5.80;;;22.50;99.90;;;;;;5055100;28;20040;-76
2023/06/23 07:56:40;;;;;;;11.43;5.82;;;22.50;99.90;;;;;;5038239;28;20048;-76
2023/06/23 07:59:06;;;;;;;11.23;6.50;;;22.70;99.90;;;;;;5038498;28;20072;-75
2023/06/23 08:01:32;;;;;;;11.35;6.15;;;22.60;99.90;;;;;;5037994;28;20488;-75
2023/06/23 08:03:57;;;;;;;10.00;6.13;;;22.60;99.90;;;;;;5038269;28;20128;-75
2023/06/23 08:06:24;;;;;;;8.90;6.32;;;22.80;99.90;;;;;;5038065;28;20048;-75
2023/06/23 08:08:52;;;;;;;10.80;6.32;;;22.90;99.90;;;;;;5038054;28;20488;-76
2023/06/23 08:11:18;;;;;;;9.90;5.82;;;23.00;99.90;;;;;;5038321;28;20052;-75
2023/06/23 08:13:45;;;;;;;11.25;6.32;;;23.00;99.90;;;;;;5055982;28;20049;-76
2023/06/23 08:16:11;;;;;;;8.90;5.47;;;23.20;99.90;;;;;;5038058;28;20511;-76
2023/06/23 08:18:36;;;;;;;9.45;6.20;;;23.20;99.90;;;;;;5055521;28;20091;-76
2023/06/23 08:21:03;;;;;;;10.10;6.68;;;23.20;99.90;;;;;;5055495;28;20144;-75
2023/06/23 08:23:29;;;;;;;10.48;5.80;;;23.30;99.90;;;;;;5038161;28;20472;-75
2023/06/23 08:25:54;;;;;;;7.03;5.32;;;23.40;99.90;;;;;;5055602;28;20052;-75
2023/06/23 08:28:20;;;;;;;11.45;6.45;;;23.40;99.90;;;;;;5055649;28;20037;-75
2023/06/23 08:30:46;;;;;;;10.93;6.32;;;23.50;99.90;;;;;;5037559;28;20407;-75
2023/06/23 08:33:12;;;;;;;7.80;6.10;;;23.40;99.90;;;;;;5055270;28;20045;-74
2023/06/23 08:35:39;;;;;;;10.43;6.35;;;23.50;99.90;;;;;;5037265;28;20480;-75
2023/06/23 08:38:06;;;;;;;9.40;6.60;;;23.50;99.90;;;;;;5037224;28;20068;-76
2023/06/23 08:40:34;;;;;;;8.05;5.63;;;23.40;99.90;;;;;;5036417;28;20480;-75
2023/06/23 08:43:00;;;;;;;9.07;6.53;;;23.30;99.90;;;;;;5055444;28;20048;-75
2023/06/23 08:45:28;;;;;;;11.73;6.85;;;23.20;99.90;;;;;;5055313;28;20125;-76
2023/06/23 08:47:58;;;;;;;11.50;6.00;;;23.50;99.90;;;;;;5037485;28;20119;-76
2023/06/23 08:50:24;;;;;;;10.20;7.03;;;23.70;99.90;;;;;;5037198;28;20056;-75
2023/06/23 08:52:50;;;;;;;9.77;6.20;;;23.70;99.90;;;;;;5055156;28;20040;-75
2023/06/23 08:55:15;;;;;;;11.00;6.32;;;23.80;99.90;;;;;;5055058;28;20037;-74
2023/06/23 08:57:41;;;;;;;10.50;6.80;;;23.80;99.90;;;;;;5036967;28;20385;-75
2023/06/23 09:00:11;;;;;;;9.70;7.35;;;24.00;99.90;;;;;;5055033;28;20373;-77
2023/06/23 09:02:36;;;;;;;11.07;7.18;;;24.00;99.90;;;;;;5054735;28;20067;-75
2023/06/23 09:05:02;;;;;;;16.88;7.93;;;24.10;99.90;;;;;;5036767;28;20431;-76
2023/06/23 09:07:28;;;;;;;11.88;7.70;;;24.10;99.90;;;;;;5054708;28;20500;-75
2023/06/23 09:09:55;;;;;;;8.57;6.18;;;24.10;99.90;;;;;;5054584;28;20051;-75
2023/06/23 09:12:21;;;;;;;12.93;8.27;;;24.00;99.90;;;;;;5037010;28;20053;-75
2023/06/23 09:14:51;;;;;;;12.43;8.25;;;24.00;99.90;;;;;;5036568;28;20059;-75
2023/06/23 09:17:18;;;;;;;10.52;8.18;;;24.10;99.90;;;;;;5036552;28;20056;-75
2023/06/23 09:19:49;;;;;;;9.85;7.43;;;23.80;99.90;;;;;;5054759;28;20116;-75
2023/06/23 09:22:18;;;;;;;12.95;7.60;;;23.90;99.90;;;;;;5036778;28;20555;-75
2023/06/23 09:24:45;;;;;;;9.82;7.38;;;23.80;99.90;;;;;;5036549;28;20045;-74
2023/06/23 09:27:11;;;;;;;13.73;9.00;;;23.80;99.90;;;;;;5036539;28;20128;-75
2023/06/23 09:29:40;;;;;;;13.85;8.00;;;24.00;99.90;;;;;;5054178;28;20140;-75
2023/06/23 09:32:08;;;;;;;10.20;7.60;;;24.10;99.90;;;;;;5054437;28;20052;-73
2023/06/23 09:34:40;;;;;;;13.55;8.98;;;24.00;99.90;;;;;;5053833;28;20412;-74
2023/06/23 09:37:16;;;;;;;11.18;7.47;;;24.00;99.90;;;;;;5036292;28;20061;-74
2023/06/23 09:39:48;;;;;;;10.05;7.43;;;24.10;99.90;;;;;;5054390;28;20037;-75
2023/06/23 09:42:14;;;;;;;14.93;7.72;;;24.00;99.90;;;;;;5036368;28;20045;-75
2023/06/23 09:44:42;;;;;;;13.07;7.70;;;24.00;99.90;;;;;;5054243;28;20136;-75
2023/06/23 09:47:08;;;;;;;11.63;7.75;;;23.80;99.90;;;;;;5054265;28;20092;-75
2023/06/23 09:49:38;;;;;;;11.48;7.93;;;24.00;99.90;;;;;;5036426;28;20129;-75
2023/06/23 09:52:04;;;;;;;11.00;7.50;;;24.10;99.90;;;;;;5036492;28;20053;-75
2023/06/23 09:54:36;;;;;;;12.40;7.00;;;24.20;99.90;;;;;;5053796;28;20045;-75
2023/06/23 09:57:12;;;;;;;9.70;7.60;;;24.00;99.90;;;;;;5035840;28;20563;-77
2023/06/23 09:59:42;;;;;;;11.30;6.97;;;24.10;99.90;;;;;;5036230;28;20106;-75
2023/06/23 10:02:20;;;;;;;10.02;7.63;;;24.10;99.90;;;;;;5036080;28;20445;-74
2023/06/23 10:04:48;;;;;;;9.32;7.00;;;24.20;99.90;;;;;;5054012;28;20099;-75
2023/06/23 10:07:22;;;;;;;12.35;8.65;;;24.20;99.90;;;;;;5053497;28;20091;-76
2023/06/23 10:09:53;;;;;;;10.85;6.93;;;24.30;99.90;;;;;;5036108;28;20124;-75
2023/06/23 10:12:23;;;;;;;9.65;7.47;;;24.30;99.90;;;;;;5053734;28;20049;-77
2023/06/23 10:14:50;;;;;;;9.38;6.93;;;24.50;99.90;;;;;;5053573;28;20123;-75
2023/06/23 10:17:16;;;;;;;10.52;7.65;;;24.30;99.90;;;;;;5053389;28;20124;-75
2023/06/23 10:19:44;;;;;;;9.07;7.00;;;24.40;99.90;;;;;;5053554;28;20029;-76
2023/06/23 10:22:12;;;;;;;12.07;7.93;;;24.40;99.90;;;;;;5072600;28;20123;-76
2023/06/23 10:24:37;;;;;;;9.25;7.40;;;24.30;99.90;;;;;;5072882;28;20438;-76
2023/06/23 10:27:05;;;;;;;7.95;7.00;;;24.10;99.90;;;;;;5055097;28;20512;-75
2023/06/23 10:29:33;;;;;;;9.35;7.90;;;24.20;99.90;;;;;;5055462;28;20067;-75
2023/06/23 10:32:01;;;;;;;10.65;7.95;;;24.20;99.90;;;;;;5054707;28;20057;-75
2023/06/23 10:34:28;;;;;;;10.45;7.72;;;24.10;99.90;;;;;;5054680;28;20052;-75
2023/06/23 10:36:59;;;;;;;10.68;7.10;;;24.20;99.90;;;;;;5054633;28;20055;-75
2023/06/23 10:39:28;;;;;;;11.65;8.05;;;24.30;99.90;;;;;;5052540;28;20170;-75
2023/06/23 10:41:58;;;;;;;11.20;8.23;;;24.40;99.90;;;;;;5072930;28;20059;-75
2023/06/23 10:44:24;;;;;;;10.80;7.90;;;24.30;99.90;;;;;;5054724;28;20040;-74
2023/06/23 10:46:50;;;;;;;10.65;7.25;;;24.50;99.90;;;;;;5054668;28;20043;-74
2023/06/23 10:49:16;;;;;;;9.82;7.47;;;24.60;99.90;;;;;;5054869;28;20059;-76
2023/06/23 10:51:45;;;;;;;12.05;7.30;;;24.60;99.90;;;;;;5073131;28;20060;-86
2023/06/23 10:54:11;;;;;;;10.70;7.47;;;24.70;99.90;;;;;;5055109;28;20122;-88
2023/06/23 10:56:43;;;;;;;14.88;7.55;;;24.50;99.90;;;;;;5073309;28;20476;-77
2023/06/23 10:59:25;;;;;;;9.95;6.40;;;24.40;99.90;;;;;;5054913;28;20040;-77
2023/06/23 11:02:00;;;;;;;11.40;7.05;;;24.40;99.90;;;;;;5055336;28;20048;-75
2023/06/23 11:04:30;;;;;;;13.60;6.85;;;24.60;99.90;;;;;;5076282;28;20063;-75
2023/06/23 11:07:12;;;;;;;11.68;6.38;;;24.60;99.90;;;;;;5059036;28;20399;-75
2023/06/23 11:10:02;;;;;;;9.57;7.07;;;24.60;99.90;;;;;;5059107;28;20123;-74
2023/06/23 11:12:34;;;;;;;9.88;6.05;;;24.70;99.90;;;;;;5059138;28;20055;-75
2023/06/23 11:15:16;;;;;;;13.10;5.93;;;24.60;99.90;;;;;;5059109;28;20380;-77
2023/06/23 11:17:47;;;;;;;12.85;6.43;;;24.50;99.90;;;;;;5058829;28;20063;-77
2023/06/23 11:20:19;;;;;;;9.35;5.95;;;24.60;99.90;;;;;;5058851;28;20044;-84
2023/06/23 11:23:00;;;;;;;9.20;6.18;;;24.20;99.90;;;;;;5076900;28;20037;-75
2023/06/23 11:25:31;;;;;;;9.27;5.65;;;23.80;99.90;;;;;;5058803;28;20041;-76
2023/06/23 11:28:34;;;;;;;9.73;6.07;;;24.10;99.90;;;;;;5076886;28;20040;-77
2023/06/23 11:30:59;;;;;;;9.93;5.20;;;24.20;99.90;;;;;;5058803;28;20055;-75
2023/06/23 11:33:37;;;;;;;7.93;5.78;;;24.40;99.90;;;;;;5058763;28;20052;-76
2023/06/23 11:36:16;;;;;;;8.70;5.55;;;24.40;99.90;;;;;;5076234;28;20063;-75
2023/06/23 11:38:43;;;;;;;8.55;5.47;;;24.60;99.90;;;;;;5058295;28;20071;-74
2023/06/23 11:41:12;;;;;;;8.52;5.80;;;24.70;99.90;;;;;;5058621;28;20059;-74
2023/06/23 11:43:38;;;;;;;10.73;6.28;;;24.60;99.90;;;;;;5057872;28;20056;-74
2023/06/23 11:46:11;;;;;;;9.40;6.05;;;24.70;99.90;;;;;;5054903;28;20036;-74
2023/06/23 11:48:36;;;;;;;7.93;5.72;;;24.50;99.90;;;;;;5055489;28;20488;-74
2023/06/23 11:51:04;;;;;;;8.93;5.50;;;24.40;99.90;;;;;;5056526;28;20036;-75
2023/06/23 11:53:31;;;;;;;9.35;5.57;;;24.40;99.90;;;;;;5084911;28;20552;-74
2023/06/23 11:55:57;;;;;;;9.50;5.43;;;24.30;99.90;;;;;;5083468;28;20055;-75
2023/06/23 11:58:23;;;;;;;7.90;5.13;;;24.40;99.90;;;;;;5042977;28;20480;-79
2023/06/23 12:00:48;;;;;;;9.05;5.65;;;24.40;99.90;;;;;;5063235;28;20037;-80
2023/06/23 12:03:15;;;;;;;7.90;5.07;;;24.30;99.90;;;;;;5074364;28;20094;-81
2023/06/23 12:05:41;;;;;;;6.93;5.03;;;24.30;99.90;;;;;;5058237;28;20041;-86
2023/06/23 12:08:07;;;;;;;7.30;4.95;;;24.30;99.90;;;;;;5057884;28;20079;-91
2023/06/23 12:10:37;;;;;;;9.27;4.88;;;24.30;99.90;;;;;;5057986;28;20064;-81
2023/06/23 12:13:06;;;;;;;8.40;5.22;;;24.20;99.90;;;;;;5056264;28;20105;-82
2023/06/23 12:15:38;;;;;;;9.07;5.05;;;24.10;99.90;;;;;;5037071;28;20056;-85
2023/06/23 12:18:05;;;;;;;11.55;4.88;;;23.90;99.90;;;;;;5037765;28;20045;-81
2023/06/23 12:20:38;;;;;;;6.65;4.30;;;23.80;99.90;;;;;;5038024;28;20076;-77
2023/06/23 12:23:11;;;;;;;8.45;4.45;;;23.90;99.90;;;;;;5055775;28;20048;-78
2023/06/23 12:25:45;;;;;;;7.38;4.40;;;24.00;99.90;;;;;;5056590;28;20051;-78
2023/06/23 12:28:16;;;;;;;9.50;4.38;;;24.10;99.90;;;;;;5077641;28;20532;-78
2023/06/23 12:30:43;;;;;;;9.63;4.57;;;24.20;99.90;;;;;;5077792;28;20063;-78
2023/06/23 12:33:18;;;;;;;9.02;4.22;;;23.90;99.90;;;;;;5077628;28;20047;-78
2023/06/23 12:36:03;;;;;;;6.00;4.25;;;23.90;99.90;;;;;;5095611;28;20063;-78
2023/06/23 12:38:31;;;;;;;8.68;4.18;;;23.70;99.90;;;;;;5077373;28;20094;-78
2023/06/23 12:41:17;;;;;;;8.35;4.78;;;23.70;99.90;;;;;;5095383;28;20079;-77
2023/06/23 12:43:43;;;;;;;5.78;4.38;;;23.90;99.90;;;;;;5077430;28;20410;-78
2023/06/23 12:46:14;;;;;;;7.80;4.10;;;24.00;99.90;;;;;;5077139;28;20040;-77
2023/06/23 12:48:44;;;;;;;6.97;4.22;;;24.10;99.90;;;;;;5081146;28;20044;-78
2023/06/23 12:51:10;;;;;;;11.38;4.38;;;24.20;99.90;;;;;;5057027;28;20049;-77